Time;durP1;ratioP1;P1;durP2;ratioP2;P2;SDS_P1;SDS_P2;PMS_P1;PMS_P2;Temp;Humidity;BMP_temperature;BMP_pressure;BME280_temperature;BME280_humidity;BME280_pressure;Samples;Min_cycle;Max_cycle;Signal;HPM_P1;HPM_P2
2021/12/13 00:00:54;;;;;;;;;;;-1.10;99.90;;;;;;2632976;47;22077;31
2021/12/13 00:03:27;;;;;;;;;;;-1.10;99.90;;;;;;2611291;47;19993;31
2021/12/13 00:06:02;;;;;;;;;;;-1.00;99.90;;;;;;2627472;47;20011;31
2021/12/13 00:08:33;;;;;;;;;;;-1.00;99.90;;;;;;2615035;54;19938;31
2021/12/13 00:11:09;;;;;;;;;;;-1.00;99.90;;;;;;2615181;54;19927;31
2021/12/13 00:13:43;;;;;;;;;;;-1.00;99.90;;;;;;2612992;54;19935;31
2021/12/13 00:16:19;;;;;;;;;;;-1.00;99.90;;;;;;2611944;54;19949;31
2021/12/13 00:18:52;;;;;;;;;;;-1.00;99.90;;;;;;2614197;54;19930;31
2021/12/13 00:21:30;;;;;;;;;;;-1.00;99.90;;;;;;2612605;54;19953;31
2021/12/13 00:24:03;;;;;;;;;;;-1.00;99.90;;;;;;2611134;54;20728;31
2021/12/13 00:26:35;;;;;;;;;;;-0.90;99.90;;;;;;2616331;47;20770;31
2021/12/13 00:29:10;;;;;;;;;;;-0.90;99.90;;;;;;2614310;54;20259;31
2021/12/13 00:31:49;;;;;;;;;;;-0.90;99.90;;;;;;2615335;54;19990;31
2021/12/13 00:34:25;;;;;;;;;;;-0.90;99.90;;;;;;2614072;54;19989;31
2021/12/13 00:36:57;;;;;;;;;;;-0.90;99.90;;;;;;2613903;54;19982;31
2021/12/13 00:39:29;;;;;;;;;;;-0.90;99.90;;;;;;2614225;47;19927;31
2021/12/13 00:42:03;;;;;;;;;;;-0.90;99.90;;;;;;2609491;47;21665;31
2021/12/13 00:44:37;;;;;;;;;;;-0.90;99.90;;;;;;2610194;54;19933;31
2021/12/13 00:47:21;;;;;;;;;;;-0.80;99.90;;;;;;2613000;54;19934;-79
2021/12/13 00:49:56;;;;;;;;;;;-0.80;99.90;;;;;;2608961;54;19958;-73
2021/12/13 00:52:27;;;;;;;;;;;-0.80;99.90;;;;;;2614704;54;19931;31
2021/12/13 00:55:01;;;;;;;;;;;-0.80;99.90;;;;;;2623174;47;20919;31
2021/12/13 00:57:40;;;;;;;;;;;-0.80;99.90;;;;;;2615650;47;20079;31
2021/12/13 01:00:15;;;;;;;;;;;-0.80;99.90;;;;;;2613190;54;19999;31
2021/12/13 01:02:51;;;;;;;;;;;-0.80;99.90;;;;;;2614257;54;19955;31
2021/12/13 01:05:29;;;;;;;;;;;-0.80;99.90;;;;;;2617949;46;19931;31
2021/12/13 01:08:17;;;;;;;;;;;-0.80;99.90;;;;;;2625239;46;19927;31
2021/12/13 01:11:12;;;;;;;;;;;-0.80;99.90;;;;;;2611381;54;19964;31
2021/12/13 01:13:48;;;;;;;;;;;-0.70;99.90;;;;;;2634000;46;19931;31
2021/12/13 01:16:35;;;;;;;;;;;-0.70;99.90;;;;;;2622152;39;20760;31
2021/12/13 01:25:24;;;;;;;;;;;-0.70;99.90;;;;;;2634647;46;20754;31
2021/12/13 01:27:59;;;;;;;;;;;-0.70;99.90;;;;;;2611788;54;19931;31
2021/12/13 01:30:35;;;;;;;;;;;-0.70;99.90;;;;;;2619010;46;19939;31
2021/12/13 01:33:08;;;;;;;;;;;-0.70;99.90;;;;;;2616142;54;20699;31
2021/12/13 01:35:44;;;;;;;;;;;-0.70;99.90;;;;;;2616574;46;19933;31
2021/12/13 01:38:18;;;;;;;;;;;-0.70;99.90;;;;;;2619117;54;19965;31
2021/12/13 01:40:53;;;;;;;;;;;-0.70;99.90;;;;;;2613073;54;19958;31
2021/12/13 01:43:28;;;;;;;;;;;-0.70;99.90;;;;;;2607895;54;20662;31
2021/12/13 01:45:58;;;;;;;;;;;-0.60;99.90;;;;;;2607282;54;20674;-74
2021/12/13 01:48:33;;;;;;;;;;;-0.60;99.90;;;;;;2632307;46;19954;31
2021/12/13 01:51:11;;;;;;;;;;;-0.60;99.90;;;;;;2629981;46;20772;31
2021/12/13 01:53:44;;;;;;;;;;;-0.60;99.90;;;;;;2614080;54;19941;31
2021/12/13 01:56:37;;;;;;;;;;;-0.50;99.90;;;;;;2616845;54;19957;31
2021/12/13 01:59:27;;;;;;;;;;;-0.50;99.90;;;;;;2614177;54;19983;31
2021/12/13 02:01:59;;;;;;;;;;;-0.50;99.90;;;;;;2603974;54;19937;31
2021/12/13 02:04:33;;;;;;;;;;;-0.50;99.90;;;;;;2610300;54;20078;31
2021/12/13 02:07:08;;;;;;;;;;;-0.50;99.90;;;;;;2612800;46;19934;31
2021/12/13 02:09:40;;;;;;;;;;;-0.50;99.90;;;;;;2604091;54;19935;31
2021/12/13 02:12:15;;;;;;;;;;;-0.50;99.90;;;;;;2619844;46;19934;31
2021/12/13 02:16:55;;;;;;;;;;;-0.50;99.90;;;;;;2608035;54;19931;31
2021/12/13 02:17:38;;;;;;;;;;;-0.40;99.90;;;;;;2610641;54;20693;31
2021/12/13 02:20:13;;;;;;;;;;;-0.40;99.90;;;;;;2608311;54;20960;31
2021/12/13 02:22:47;;;;;;;;;;;-0.40;99.90;;;;;;2629398;46;19934;31
2021/12/13 02:25:22;;;;;;;;;;;-0.40;99.90;;;;;;2604079;46;19930;31
2021/12/13 02:27:58;;;;;;;;;;;-0.30;99.90;;;;;;2603554;54;19935;31
2021/12/13 02:30:34;;;;;;;;;;;-0.40;99.90;;;;;;2614431;54;20005;31
2021/12/13 02:33:08;;;;;;;;;;;-0.30;99.90;;;;;;2613849;54;20828;31
2021/12/13 02:35:42;;;;;;;;;;;-0.30;99.90;;;;;;2609185;46;19965;31
2021/12/13 02:38:17;;;;;;;;;;;-0.30;99.90;;;;;;2619027;54;20833;31
2021/12/13 02:40:48;;;;;;;;;;;-0.30;99.90;;;;;;2613776;54;19931;31
2021/12/13 02:43:23;;;;;;;;;;;-0.30;99.90;;;;;;2614667;54;19962;31
2021/12/13 02:45:57;;;;;;;;;;;-0.30;99.90;;;;;;2628662;46;19942;31
2021/12/13 02:48:30;;;;;;;;;;;-0.30;99.90;;;;;;2608658;54;19954;31
2021/12/13 02:51:06;;;;;;;;;;;-0.20;99.90;;;;;;2631561;46;19938;31
2021/12/13 02:53:43;;;;;;;;;;;-0.20;99.90;;;;;;2614535;54;19962;31
2021/12/13 02:56:15;;;;;;;;;;;-0.20;99.90;;;;;;2608334;54;19931;31
2021/12/13 02:58:46;;;;;;;;;;;-0.20;99.90;;;;;;2606525;54;19981;31
2021/12/13 03:01:20;;;;;;;;;;;-0.20;99.90;;;;;;2608013;46;19933;31
2021/12/13 03:03:55;;;;;;;;;;;-0.20;99.90;;;;;;2616012;54;20699;31
2021/12/13 03:06:30;;;;;;;;;;;-0.20;99.90;;;;;;2605192;54;20717;31
2021/12/13 03:09:08;;;;;;;;;;;-0.20;99.90;;;;;;2617802;54;19927;31
2021/12/13 03:11:41;;;;;;;;;;;-0.10;99.90;;;;;;2614788;54;20790;31
2021/12/13 03:14:13;;;;;;;;;;;-0.10;99.90;;;;;;2610732;54;20001;31
2021/12/13 03:16:48;;;;;;;;;;;-0.10;99.90;;;;;;2615311;54;19931;31
2021/12/13 03:19:25;;;;;;;;;;;-0.10;99.90;;;;;;2614294;46;20053;31
2021/12/13 03:22:05;;;;;;;;;;;-0.10;99.90;;;;;;2612357;54;20838;31
2021/12/13 03:24:47;;;;;;;;;;;-0.10;99.90;;;;;;2627317;46;19927;31
2021/12/13 03:27:26;;;;;;;;;;;-0.10;99.90;;;;;;2616400;54;19938;31
2021/12/13 03:30:00;;;;;;;;;;;-0.10;99.90;;;;;;2626131;54;19942;31
2021/12/13 03:32:38;;;;;;;;;;;0.00;99.90;;;;;;2616236;46;19937;31
2021/12/13 03:35:13;;;;;;;;;;;0.00;99.90;;;;;;2616465;54;19953;31
2021/12/13 03:37:45;;;;;;;;;;;0.00;99.90;;;;;;2618909;39;21904;31
2021/12/13 03:40:19;;;;;;;;;;;0.00;99.90;;;;;;2616487;54;19933;31
2021/12/13 03:42:51;;;;;;;;;;;0.10;99.90;;;;;;2615697;54;20814;31
2021/12/13 03:45:28;;;;;;;;;;;0.10;99.90;;;;;;2618082;54;19922;31
2021/12/13 03:48:00;;;;;;;;;;;0.10;99.90;;;;;;2608299;54;20693;31
2021/12/13 03:50:32;;;;;;;;;;;0.20;99.90;;;;;;2616863;54;20367;31
2021/12/13 03:53:09;;;;;;;;;;;0.20;99.90;;;;;;2619612;54;19923;31
2021/12/13 03:55:48;;;;;;;;;;;0.20;99.90;;;;;;2633139;46;20804;31
2021/12/13 03:58:23;;;;;;;;;;;0.20;99.90;;;;;;2622146;54;19941;31
2021/12/13 04:00:54;;;;;;;;;;;0.20;99.90;;;;;;2631215;47;19934;-79
2021/12/13 04:03:26;;;;;;;;;;;0.30;99.90;;;;;;2615220;54;19923;31
2021/12/13 04:06:00;;;;;;;;;;;0.30;99.90;;;;;;2617657;54;19953;31
2021/12/13 04:08:33;;;;;;;;;;;0.30;99.90;;;;;;2616665;54;19931;-73
2021/12/13 04:11:08;;;;;;;;;;;0.30;99.90;;;;;;2616171;54;19945;31
2021/12/13 04:13:39;;;;;;;;;;;0.30;99.90;;;;;;2619678;54;19986;31
2021/12/13 04:16:15;;;;;;;;;;;0.30;99.90;;;;;;2619746;47;19937;31
2021/12/13 04:21:39;;;;;;;;;;;0.40;99.90;;;;;;2631243;54;20418;31
2021/12/13 04:24:11;;;;;;;;;;;0.40;99.90;;;;;;2631383;54;19943;-77
2021/12/13 04:29:17;;;;;;;;;;;0.40;99.90;;;;;;2631541;54;19964;-77
2021/12/13 04:31:47;;;;;;;;;;;0.40;99.90;;;;;;2629296;54;20501;-74
2021/12/13 04:34:18;;;;;;;;;;;0.40;99.90;;;;;;2626819;54;20005;31
2021/12/13 04:37:08;;;;;;;;;;;0.40;99.90;;;;;;2631981;54;19941;-78
2021/12/13 04:39:40;;;;;;;;;;;0.40;99.90;;;;;;2632206;54;19983;-76
2021/12/13 04:42:16;;;;;;;;;;;0.50;99.90;;;;;;2627310;54;19922;-77
2021/12/13 04:44:52;;;;;;;;;;;0.50;99.90;;;;;;2634103;46;19967;-77
2021/12/13 04:47:25;;;;;;;;;;;0.40;99.90;;;;;;2631883;54;19962;-76
2021/12/13 04:50:00;;;;;;;;;;;0.50;99.90;;;;;;2631981;54;19923;-76
2021/12/13 04:52:30;;;;;;;;;;;0.50;99.90;;;;;;2644112;31;20469;-78
2021/12/13 04:55:01;;;;;;;;;;;0.40;99.90;;;;;;2632009;54;19939;-77
2021/12/13 04:57:33;;;;;;;;;;;0.50;99.90;;;;;;2631843;54;19938;-78
2021/12/13 05:00:09;;;;;;;;;;;0.50;99.90;;;;;;2632074;54;20421;-78
2021/12/13 05:02:42;;;;;;;;;;;0.50;99.90;;;;;;2631963;54;19927;-76
2021/12/13 05:05:13;;;;;;;;;;;0.50;99.90;;;;;;2641995;39;20379;-81
2021/12/13 05:07:49;;;;;;;;;;;0.50;99.90;;;;;;2631227;54;19943;-73
2021/12/13 05:10:19;;;;;;;;;;;0.50;99.90;;;;;;2617638;54;19970;31
2021/12/13 05:13:01;;;;;;;;;;;0.50;99.90;;;;;;2631873;54;19995;-77
2021/12/13 05:15:39;;;;;;;;;;;0.50;99.90;;;;;;2631895;54;20011;-76
2021/12/13 05:18:11;;;;;;;;;;;0.60;99.90;;;;;;2641351;46;19930;-79
2021/12/13 05:20:46;;;;;;;;;;;0.60;99.90;;;;;;2631766;54;19949;-79
2021/12/13 05:23:21;;;;;;;;;;;0.60;99.90;;;;;;2631672;54;19927;-79
2021/12/13 05:25:53;;;;;;;;;;;0.60;99.90;;;;;;2631583;54;19939;-79
2021/12/13 05:28:23;;;;;;;;;;;0.60;99.90;;;;;;2631729;54;19944;-79
2021/12/13 05:31:04;;;;;;;;;;;0.70;99.90;;;;;;2631779;54;19962;-79
2021/12/13 05:33:36;;;;;;;;;;;0.70;99.90;;;;;;2631820;54;20010;-79
2021/12/13 05:36:08;;;;;;;;;;;0.70;99.90;;;;;;2631448;54;19923;-78
2021/12/13 05:38:42;;;;;;;;;;;0.70;99.90;;;;;;2632999;46;19942;-79
2021/12/13 05:41:27;;;;;;;;;;;0.70;99.90;;;;;;2633851;39;20286;-80
2021/12/13 05:43:58;;;;;;;;;;;0.70;99.90;;;;;;2631621;54;19927;-79
2021/12/13 05:46:36;;;;;;;;;;;0.70;99.90;;;;;;2631819;54;19998;-80
2021/12/13 05:49:07;;;;;;;;;;;0.70;99.90;;;;;;2631758;54;19945;-79
2021/12/13 05:51:38;;;;;;;;;;;0.80;99.90;;;;;;2631470;54;19930;-81
2021/12/13 05:54:09;;;;;;;;;;;0.80;99.90;;;;;;2631910;54;19957;-80
2021/12/13 05:56:41;;;;;;;;;;;0.80;99.90;;;;;;2632378;46;20390;-80
2021/12/13 05:59:16;;;;;;;;;;;0.80;99.90;;;;;;2631601;54;19983;-80
2021/12/13 06:02:01;;;;;;;;;;;0.70;99.90;;;;;;2631435;54;19927;-79
2021/12/13 06:04:41;;;;;;;;;;;0.80;99.90;;;;;;2622855;54;20016;31
2021/12/13 06:07:27;;;;;;;;;;;0.70;99.90;;;;;;2631188;54;19931;-79
2021/12/13 06:10:03;;;;;;;;;;;0.80;99.90;;;;;;2642643;39;20525;-79
2021/12/13 06:12:36;;;;;;;;;;;0.80;99.90;;;;;;2634927;39;20474;-79
2021/12/13 06:15:20;;;;;;;;;;;0.90;99.90;;;;;;2631255;54;19938;-79
2021/12/13 06:17:53;;;;;;;;;;;0.90;99.90;;;;;;2631201;54;19939;-77
2021/12/13 06:20:27;;;;;;;;;;;0.90;99.90;;;;;;2620480;54;19943;31
2021/12/13 06:22:58;;;;;;;;;;;0.90;99.90;;;;;;2625014;54;19923;-74
2021/12/13 06:25:29;;;;;;;;;;;1.00;99.90;;;;;;2649478;39;20446;-76
2021/12/13 06:27:59;;;;;;;;;;;1.00;99.90;;;;;;2631766;54;19929;-79
2021/12/13 06:30:34;;;;;;;;;;;1.00;99.90;;;;;;2624417;54;20041;31
2021/12/13 06:33:10;;;;;;;;;;;1.00;99.90;;;;;;2631342;54;19953;-76
2021/12/13 06:35:47;;;;;;;;;;;1.00;99.90;;;;;;2622814;46;19922;31
2021/12/13 06:38:44;;;;;;;;;;;1.00;99.90;;;;;;2623655;54;19937;31
2021/12/13 06:41:20;;;;;;;;;;;1.00;99.90;;;;;;2620269;54;19939;31
2021/12/13 06:43:53;;;;;;;;;;;1.00;99.90;;;;;;2627787;54;19946;31
2021/12/13 06:46:41;;;;;;;;;;;1.00;99.90;;;;;;2631782;54;19927;-79
2021/12/13 06:49:13;;;;;;;;;;;1.00;99.90;;;;;;2632680;46;19923;-78
2021/12/13 06:51:50;;;;;;;;;;;1.00;99.90;;;;;;2631646;54;19923;-78
2021/12/13 06:54:23;;;;;;;;;;;1.00;99.90;;;;;;2631839;54;19957;-80
2021/12/13 06:56:59;;;;;;;;;;;1.00;99.90;;;;;;2623451;54;19999;31
2021/12/13 06:59:33;;;;;;;;;;;1.10;99.90;;;;;;2620132;54;20791;-76
2021/12/13 07:02:09;;;;;;;;;;;1.10;99.90;;;;;;2621879;54;19957;31
2021/12/13 07:05:01;;;;;;;;;;;1.10;99.90;;;;;;2631710;54;19937;-77
2021/12/13 07:07:35;;;;;;;;;;;1.10;99.90;;;;;;2631131;54;19934;-80
2021/12/13 07:10:11;;;;;;;;;;;1.10;99.90;;;;;;2620958;54;19939;31
2021/12/13 07:12:48;;;;;;;;;;;1.10;99.90;;;;;;2631684;54;19930;-76
2021/12/13 07:15:45;;;;;;;;;;;1.10;99.90;;;;;;2631573;54;19949;-77
2021/12/13 07:18:17;;;;;;;;;;;1.10;99.90;;;;;;2632907;46;20447;-75
2021/12/13 07:20:59;;;;;;;;;;;1.10;99.90;;;;;;2631044;54;19939;-77
2021/12/13 07:23:35;;;;;;;;;;;1.20;99.90;;;;;;2630667;54;19943;-76
2021/12/13 07:26:06;;;;;;;;;;;1.20;99.90;;;;;;2631147;54;19974;-79
2021/12/13 07:28:39;;;;;;;;;;;1.20;99.90;;;;;;2630767;54;19943;-79
2021/12/13 07:31:12;;;;;;;;;;;1.20;99.90;;;;;;2630904;54;19982;-77
2021/12/13 07:33:44;;;;;;;;;;;1.20;99.90;;;;;;2631089;54;19943;-77
2021/12/13 07:36:16;;;;;;;;;;;1.20;99.90;;;;;;2630783;54;19949;-77
2021/12/13 07:38:53;;;;;;;;;;;1.30;99.90;;;;;;2630482;54;19935;-77
2021/12/13 07:41:25;;;;;;;;;;;1.30;99.90;;;;;;2631950;46;19996;-77
2021/12/13 07:43:56;;;;;;;;;;;1.30;99.90;;;;;;2630939;54;20573;-78
2021/12/13 07:46:29;;;;;;;;;;;1.30;99.90;;;;;;2630876;54;19998;-80
2021/12/13 07:49:03;;;;;;;;;;;1.30;99.90;;;;;;2630444;54;19919;-78
2021/12/13 07:51:36;;;;;;;;;;;1.30;99.90;;;;;;2623738;47;19933;-75
2021/12/13 07:54:14;;;;;;;;;;;1.30;99.90;;;;;;2624148;54;19986;31
2021/12/13 07:56:47;;;;;;;;;;;1.30;99.90;;;;;;2631951;47;19942;-78
2021/12/13 07:59:19;;;;;;;;;;;1.40;99.90;;;;;;2634305;47;19927;-78
2021/12/13 08:01:57;;;;;;;;;;;1.40;99.90;;;;;;2631103;54;19918;-78
2021/12/13 08:04:33;;;;;;;;;;;1.40;99.90;;;;;;2636348;47;19947;-78
2021/12/13 08:07:08;;;;;;;;;;;1.40;99.90;;;;;;2630840;54;19938;-76
2021/12/13 08:09:46;;;;;;;;;;;1.40;99.90;;;;;;2638209;39;20375;-76
2021/12/13 08:12:26;;;;;;;;;;;1.40;99.90;;;;;;2632094;54;19938;-76
2021/12/13 08:14:59;;;;;;;;;;;1.40;99.90;;;;;;2631874;54;19947;-77
2021/12/13 08:17:32;;;;;;;;;;;1.40;99.90;;;;;;2632051;54;19982;-77
2021/12/13 08:20:11;;;;;;;;;;;1.40;99.90;;;;;;2633067;46;19931;-77
2021/12/13 08:22:43;;;;;;;;;;;1.50;99.90;;;;;;2633091;46;19941;-77
2021/12/13 08:25:19;;;;;;;;;;;1.50;99.90;;;;;;2639154;46;20390;-77
2021/12/13 08:27:54;;;;;;;;;;;1.50;99.90;;;;;;2623402;54;19955;-78
2021/12/13 08:30:26;;;;;;;;;;;1.60;99.90;;;;;;2631775;54;20631;-78
2021/12/13 08:32:59;;;;;;;;;;;1.60;99.90;;;;;;2632214;39;20885;-77
2021/12/13 08:35:31;;;;;;;;;;;1.60;99.90;;;;;;2631748;54;20430;-77
2021/12/13 08:38:03;;;;;;;;;;;1.60;99.90;;;;;;2631558;54;19943;-78
2021/12/13 08:40:51;;;;;;;;;;;1.60;99.90;;;;;;2631461;54;20012;-76
2021/12/13 08:43:34;;;;;;;;;;;1.60;99.90;;;;;;2631336;54;19938;-78
2021/12/13 08:46:05;;;;;;;;;;;1.60;99.90;;;;;;2631487;54;19944;-76
2021/12/13 08:48:51;;;;;;;;;;;1.70;99.90;;;;;;2631517;54;19995;-77
2021/12/13 08:51:22;;;;;;;;;;;1.70;99.90;;;;;;2637705;46;19975;-76
2021/12/13 08:54:07;;;;;;;;;;;1.70;99.90;;;;;;2631938;54;19923;-77
2021/12/13 08:56:43;;;;;;;;;;;1.70;99.90;;;;;;2631764;54;19943;-78
2021/12/13 08:59:20;;;;;;;;;;;1.80;99.90;;;;;;2632605;46;20543;-79
2021/12/13 09:01:52;;;;;;;;;;;1.80;99.90;;;;;;2632112;54;19930;-79
2021/12/13 09:04:39;;;;;;;;;;;1.80;99.90;;;;;;2631959;54;19967;-77
2021/12/13 09:07:12;;;;;;;;;;;1.80;99.90;;;;;;2631905;54;19942;-78
2021/12/13 09:09:48;;;;;;;;;;;1.80;99.90;;;;;;2624117;54;19923;31
2021/12/13 09:12:31;;;;;;;;;;;1.90;99.90;;;;;;2621478;54;19973;31
2021/12/13 09:15:07;;;;;;;;;;;1.90;99.90;;;;;;2620158;54;19935;31
2021/12/13 09:17:41;;;;;;;;;;;1.90;99.90;;;;;;2631323;54;19961;-78
2021/12/13 09:20:14;;;;;;;;;;;1.90;99.90;;;;;;2638706;46;19923;-80
2021/12/13 09:22:46;;;;;;;;;;;2.10;99.90;;;;;;2632338;46;19939;-75
2021/12/13 09:25:19;;;;;;;;;;;2.10;99.90;;;;;;2619479;54;19933;31
2021/12/13 09:27:54;;;;;;;;;;;2.10;99.90;;;;;;2623347;46;19931;31
2021/12/13 09:30:54;;;;;;;;;;;2.10;99.90;;;;;;2617700;54;19967;31
2021/12/13 09:33:30;;;;;;;;;;;2.10;99.90;;;;;;2616465;54;19954;31
2021/12/13 09:36:02;;;;;;;;;;;2.10;99.90;;;;;;2621303;54;19935;31
2021/12/13 09:38:43;;;;;;;;;;;2.10;99.90;;;;;;2621525;54;19954;31
2021/12/13 09:41:20;;;;;;;;;;;2.10;99.90;;;;;;2631929;54;20426;-81
2021/12/13 09:43:54;;;;;;;;;;;2.10;99.90;;;;;;2624546;46;19927;31
2021/12/13 09:46:32;;;;;;;;;;;2.10;99.90;;;;;;2629058;46;19935;31
2021/12/13 09:49:06;;;;;;;;;;;2.10;99.90;;;;;;2619824;39;20324;31
2021/12/13 09:51:41;;;;;;;;;;;2.20;99.90;;;;;;2629168;54;19939;31
2021/12/13 09:54:12;;;;;;;;;;;2.20;99.90;;;;;;2661039;39;20405;-81
2021/12/13 09:59:16;;;;;;;;;;;2.20;99.90;;;;;;2615920;54;19962;-75
2021/12/13 10:01:53;;;;;;;;;;;2.20;99.90;;;;;;2627719;54;19958;31
2021/12/13 10:04:28;;;;;;;;;;;2.30;99.90;;;;;;2618954;54;19927;31
2021/12/13 10:07:08;;;;;;;;;;;2.30;99.90;;;;;;2621345;54;20818;31
2021/12/13 10:09:40;;;;;;;;;;;2.30;99.90;;;;;;2614509;54;19935;31
2021/12/13 10:12:20;;;;;;;;;;;2.40;99.90;;;;;;2611349;54;19951;-73
2021/12/13 10:14:54;;;;;;;;;;;2.40;99.90;;;;;;2618839;54;21228;31
2021/12/13 10:17:32;;;;;;;;;;;2.40;99.90;;;;;;2617612;46;20778;31
2021/12/13 10:20:07;;;;;;;;;;;2.50;99.90;;;;;;2629233;54;19943;31
2021/12/13 10:22:41;;;;;;;;;;;2.50;99.90;;;;;;2613140;54;19930;31
2021/12/13 10:25:20;;;;;;;;;;;2.50;99.90;;;;;;2602860;54;20819;31
2021/12/13 10:27:55;;;;;;;;;;;2.50;99.90;;;;;;2628125;46;19938;31
2021/12/13 10:30:30;;;;;;;;;;;2.50;99.90;;;;;;2614999;54;20041;31
2021/12/13 10:33:06;;;;;;;;;;;2.50;99.90;;;;;;2609666;54;20692;31
2021/12/13 10:35:42;;;;;;;;;;;2.50;99.90;;;;;;2610000;54;19950;31
2021/12/13 10:38:17;;;;;;;;;;;2.50;99.90;;;;;;2605907;54;19989;31
2021/12/13 10:40:50;;;;;;;;;;;2.50;99.90;;;;;;2605201;54;19927;31
2021/12/13 10:43:23;;;;;;;;;;;2.50;99.90;;;;;;2607751;54;19931;31
2021/12/13 10:45:58;;;;;;;;;;;2.60;99.90;;;;;;2611258;54;20863;31
2021/12/13 10:48:34;;;;;;;;;;;2.60;99.90;;;;;;2615296;54;19941;31
2021/12/13 10:51:10;;;;;;;;;;;2.60;99.90;;;;;;2611328;46;19934;31
2021/12/13 10:53:43;;;;;;;;;;;2.60;99.90;;;;;;2607880;54;19931;31
2021/12/13 10:56:17;;;;;;;;;;;2.60;99.90;;;;;;2608989;54;19931;31
2021/12/13 10:58:50;;;;;;;;;;;2.70;99.90;;;;;;2620759;54;19930;31
2021/12/13 11:01:29;;;;;;;;;;;2.70;99.90;;;;;;2613882;54;19970;31
2021/12/13 11:04:12;;;;;;;;;;;2.70;99.90;;;;;;2615356;54;19940;31
2021/12/13 11:06:51;;;;;;;;;;;2.70;99.90;;;;;;2619201;54;19946;31
2021/12/13 11:09:23;;;;;;;;;;;2.80;99.90;;;;;;2616608;54;19938;31
2021/12/13 11:11:57;;;;;;;;;;;2.80;99.90;;;;;;2613242;54;19993;31
2021/12/13 11:14:31;;;;;;;;;;;2.80;99.90;;;;;;2614702;54;19947;31
2021/12/13 11:17:05;;;;;;;;;;;2.80;99.90;;;;;;2612025;54;19937;31
2021/12/13 11:19:43;;;;;;;;;;;2.80;99.90;;;;;;2617369;46;19950;31
2021/12/13 11:22:16;;;;;;;;;;;2.90;99.90;;;;;;2621441;46;20927;31
2021/12/13 11:24:51;;;;;;;;;;;2.90;99.90;;;;;;2616072;54;19938;31
2021/12/13 11:27:26;;;;;;;;;;;2.80;99.90;;;;;;2612139;54;19934;31
2021/12/13 11:30:01;;;;;;;;;;;2.90;99.90;;;;;;2603828;54;19986;31
2021/12/13 11:32:52;;;;;;;;;;;2.90;99.90;;;;;;2606334;46;20778;31
2021/12/13 11:35:41;;;;;;;;;;;3.00;99.90;;;;;;2603470;54;20768;31
2021/12/13 11:38:26;;;;;;;;;;;2.90;99.90;;;;;;2604066;54;19931;31
2021/12/13 11:41:07;;;;;;;;;;;3.00;99.90;;;;;;2622150;39;21469;31
2021/12/13 11:43:57;;;;;;;;;;;3.00;99.90;;;;;;2607031;54;20735;31
2021/12/13 11:46:38;;;;;;;;;;;3.00;99.90;;;;;;2603454;54;19950;31
2021/12/13 11:49:25;;;;;;;;;;;3.00;99.90;;;;;;2603796;54;19942;31
2021/12/13 11:52:09;;;;;;;;;;;3.00;99.90;;;;;;2607678;46;19933;31
2021/12/13 11:54:51;;;;;;;;;;;3.00;99.90;;;;;;2605404;54;19969;31
2021/12/13 11:57:35;;;;;;;;;;;3.00;99.90;;;;;;2603563;54;20820;31
2021/12/13 12:00:14;;;;;;;;;;;3.00;99.90;;;;;;2605738;54;19974;31
2021/12/13 12:02:52;;;;;;;;;;;3.00;99.90;;;;;;2603004;54;20022;31
2021/12/13 12:05:40;;;;;;;;;;;3.10;99.90;;;;;;2603536;54;19971;31
2021/12/13 12:08:25;;;;;;;;;;;3.20;99.90;;;;;;2620970;47;19946;31
2021/12/13 12:11:20;;;;;;;;;;;3.10;99.90;;;;;;2621410;47;20026;31
2021/12/13 12:14:02;;;;;;;;;;;3.20;99.90;;;;;;2603445;54;19934;31
2021/12/13 12:16:37;;;;;;;;;;;3.20;99.90;;;;;;2603428;54;19945;31
2021/12/13 12:19:11;;;;;;;;;;;3.20;99.90;;;;;;2603267;54;19958;31
2021/12/13 12:21:46;;;;;;;;;;;3.20;99.90;;;;;;2603545;54;19937;31
2021/12/13 12:24:20;;;;;;;;;;;3.20;99.90;;;;;;2603492;54;19930;31
2021/12/13 12:26:55;;;;;;;;;;;3.20;99.90;;;;;;2607190;54;19931;31
2021/12/13 12:29:29;;;;;;;;;;;3.30;99.90;;;;;;2603114;54;20014;31
2021/12/13 12:32:04;;;;;;;;;;;3.30;99.90;;;;;;2622146;47;20720;31
2021/12/13 12:34:36;;;;;;;;;;;3.30;99.90;;;;;;2603309;47;19945;31
2021/12/13 12:37:20;;;;;;;;;;;3.30;99.90;;;;;;2604152;47;20030;31
2021/12/13 12:40:07;;;;;;;;;;;3.30;99.90;;;;;;2603232;54;20656;31
2021/12/13 12:42:41;;;;;;;;;;;3.30;99.90;;;;;;2603709;54;20759;-78
2021/12/13 12:45:17;;;;;;;;;;;3.30;99.90;;;;;;2603312;54;21241;31
2021/12/13 12:48:16;;;;;;;;;;;3.30;99.90;;;;;;2607367;54;20742;31
2021/12/13 12:50:54;;;;;;;;;;;3.40;99.90;;;;;;2604082;47;19939;31
2021/12/13 12:53:36;;;;;;;;;;;3.40;99.90;;;;;;2603153;54;21172;31
2021/12/13 12:56:10;;;;;;;;;;;3.40;99.90;;;;;;2603132;54;19941;31
2021/12/13 12:58:52;;;;;;;;;;;3.40;99.90;;;;;;2603882;54;20014;31
2021/12/13 13:01:26;;;;;;;;;;;3.40;99.90;;;;;;2609789;54;19934;31
2021/12/13 13:04:07;;;;;;;;;;;3.40;99.90;;;;;;2603818;54;20076;31
2021/12/13 13:06:38;;;;;;;;;;;3.40;99.90;;;;;;2603983;54;19937;31
2021/12/13 13:09:12;;;;;;;;;;;3.40;99.90;;;;;;2603764;54;19934;31
2021/12/13 13:11:47;;;;;;;;;;;3.40;99.90;;;;;;2603969;54;19931;31
2021/12/13 13:14:22;;;;;;;;;;;3.40;99.90;;;;;;2605832;54;20022;31
2021/12/13 13:16:57;;;;;;;;;;;3.40;99.90;;;;;;2606181;54;19968;31
2021/12/13 13:19:32;;;;;;;;;;;3.40;99.90;;;;;;2604719;46;19938;31
2021/12/13 13:22:05;;;;;;;;;;;3.40;99.90;;;;;;2613426;54;19938;31
2021/12/13 13:24:58;;;;;;;;;;;3.40;99.90;;;;;;2612185;54;19983;31
2021/12/13 13:27:30;;;;;;;;;;;3.40;99.90;;;;;;2606683;54;19922;31
2021/12/13 13:30:04;;;;;;;;;;;3.40;99.90;;;;;;2604401;54;20805;31
2021/12/13 13:32:39;;;;;;;;;;;3.40;99.90;;;;;;2607077;54;20732;31
2021/12/13 13:35:25;;;;;;;;;;;3.40;99.90;;;;;;2603986;54;19934;31
2021/12/13 13:38:08;;;;;;;;;;;3.50;99.90;;;;;;2610460;39;21009;31
2021/12/13 13:40:43;;;;;;;;;;;3.50;99.90;;;;;;2611097;46;19961;31
2021/12/13 13:43:15;;;;;;;;;;;3.50;99.90;;;;;;2603722;54;19931;31
2021/12/13 13:45:52;;;;;;;;;;;3.40;99.90;;;;;;2603864;54;19941;31
2021/12/13 13:48:27;;;;;;;;;;;3.50;99.90;;;;;;2632013;46;22128;31
2021/12/13 13:50:59;;;;;;;;;;;3.50;99.90;;;;;;2603909;54;21189;31
2021/12/13 13:53:31;;;;;;;;;;;3.50;99.90;;;;;;2604132;46;19931;31
2021/12/13 13:56:03;;;;;;;;;;;3.50;99.90;;;;;;2702919;39;21254;31
2021/12/13 13:58:35;;;;;;;;;;;3.50;99.90;;;;;;2614891;46;19934;31
2021/12/13 14:01:08;;;;;;;;;;;3.50;99.90;;;;;;2602526;54;19951;31
2021/12/13 14:03:46;;;;;;;;;;;3.50;99.90;;;;;;2611556;54;19954;31
2021/12/13 14:06:19;;;;;;;;;;;3.50;99.90;;;;;;2612657;54;19931;31
2021/12/13 14:08:57;;;;;;;;;;;3.50;99.90;;;;;;2603831;54;20006;31
2021/12/13 14:11:35;;;;;;;;;;;3.50;99.90;;;;;;2604059;46;20802;31
2021/12/13 14:14:09;;;;;;;;;;;3.50;99.90;;;;;;2622279;46;19997;31
2021/12/13 14:16:41;;;;;;;;;;;3.60;99.90;;;;;;2607272;46;20779;31
2021/12/13 14:19:20;;;;;;;;;;;3.60;99.90;;;;;;2610639;39;20758;31
2021/12/13 14:21:52;;;;;;;;;;;3.60;99.90;;;;;;2603419;54;19934;31
2021/12/13 14:24:34;;;;;;;;;;;3.60;99.90;;;;;;2604497;46;19950;31
2021/12/13 14:27:15;;;;;;;;;;;3.60;99.90;;;;;;2603579;46;20720;31
2021/12/13 14:29:53;;;;;;;;;;;3.60;99.90;;;;;;2603462;54;20030;31
2021/12/13 14:32:29;;;;;;;;;;;3.60;99.90;;;;;;2603604;54;19969;31
2021/12/13 14:35:06;;;;;;;;;;;3.60;99.90;;;;;;2603474;54;20741;31
2021/12/13 14:37:40;;;;;;;;;;;3.60;99.90;;;;;;2622073;46;20006;31
2021/12/13 14:40:16;;;;;;;;;;;3.60;99.90;;;;;;2603539;54;19942;31
2021/12/13 14:42:50;;;;;;;;;;;3.50;99.90;;;;;;2603868;54;19954;31
2021/12/13 14:45:24;;;;;;;;;;;3.60;99.90;;;;;;2603481;54;20790;31
2021/12/13 14:47:58;;;;;;;;;;;3.50;99.90;;;;;;2604650;46;19931;31
2021/12/13 14:50:33;;;;;;;;;;;3.50;99.90;;;;;;2609806;39;20873;31
2021/12/13 14:53:06;;;;;;;;;;;3.60;99.90;;;;;;2603300;54;20199;31
2021/12/13 14:55:41;;;;;;;;;;;3.60;99.90;;;;;;2604301;46;19935;31
2021/12/13 14:58:15;;;;;;;;;;;3.60;99.90;;;;;;2603567;54;19934;31
2021/12/13 15:00:53;;;;;;;;;;;3.50;99.90;;;;;;2604372;46;19935;31
2021/12/13 15:03:27;;;;;;;;;;;3.50;99.90;;;;;;2604357;46;20761;31
2021/12/13 15:06:05;;;;;;;;;;;3.50;99.90;;;;;;2603398;54;19947;31
2021/12/13 15:08:38;;;;;;;;;;;3.50;99.90;;;;;;2603730;54;20759;31
2021/12/13 15:11:18;;;;;;;;;;;3.50;99.90;;;;;;2603333;54;19957;31
2021/12/13 15:13:51;;;;;;;;;;;3.50;99.90;;;;;;2702088;39;22199;31
2021/12/13 15:16:27;;;;;;;;;;;3.50;99.90;;;;;;2604834;46;19950;31
2021/12/13 15:19:03;;;;;;;;;;;3.50;99.90;;;;;;2603435;54;19941;31
2021/12/13 15:21:43;;;;;;;;;;;3.50;99.90;;;;;;2603433;54;20755;31
2021/12/13 15:24:17;;;;;;;;;;;3.50;99.90;;;;;;2603275;54;19934;31
2021/12/13 15:26:52;;;;;;;;;;;3.40;99.90;;;;;;2603683;54;19950;31
2021/12/13 15:29:25;;;;;;;;;;;3.50;99.90;;;;;;2603403;54;19958;31
2021/12/13 15:32:01;;;;;;;;;;;3.40;99.90;;;;;;2603287;54;20814;31
2021/12/13 15:34:36;;;;;;;;;;;3.40;99.90;;;;;;2621806;46;19941;31
2021/12/13 15:37:22;;;;;;;;;;;3.40;99.90;;;;;;2602668;54;20005;31
2021/12/13 15:40:01;;;;;;;;;;;3.40;99.90;;;;;;2603222;54;19934;31
2021/12/13 15:42:38;;;;;;;;;;;3.40;99.90;;;;;;2621878;46;19941;31